Time;durP1;ratioP1;P1;durP2;ratioP2;P2;SDS_P1;SDS_P2;PMS_P1;PMS_P2;Temp;Humidity;BMP_temperature;BMP_pressure;BME280_temperature;BME280_humidity;BME280_pressure;Samples;Min_cycle;Max_cycle;Signal;HPM_P1;HPM_P2
2023/11/29 00:03:16;;;;;;;49.20;25.80;;;;;;;-3.25;84.93;97614.84;226125;1273;22581;-79
2023/11/29 00:08:19;;;;;;;53.60;27.30;;;;;;;-3.28;85.24;97622.71;226233;1273;22535;-79
2023/11/29 00:13:22;;;;;;;52.90;25.20;;;;;;;-3.30;85.20;97627.55;226103;1275;22754;-78
2023/11/29 00:18:24;;;;;;;46.10;24.80;;;;;;;-3.32;84.96;97630.49;226169;1273;22932;-78
2023/11/29 00:23:26;;;;;;;53.70;27.00;;;;;;;-3.35;85.14;97640.34;226189;1272;22870;-78
2023/11/29 00:28:33;;;;;;;48.50;26.30;;;;;;;-3.36;84.85;97646.86;226176;1276;22560;-78
2023/11/29 00:33:35;;;;;;;55.60;28.10;;;;;;;-3.37;84.79;97647.80;226222;1274;22593;-78
2023/11/29 00:38:37;;;;;;;51.70;26.10;;;;;;;-3.40;85.05;97657.89;226176;1276;22930;-78
2023/11/29 00:43:39;;;;;;;52.70;27.50;;;;;;;-3.43;85.27;97663.44;226268;1273;22638;-78
2023/11/29 00:48:41;;;;;;;49.60;26.60;;;;;;;-3.44;85.44;97670.09;226148;1276;22637;-79
2023/11/29 00:53:43;;;;;;;52.50;28.80;;;;;;;-3.46;85.52;97670.73;226191;1269;22582;-78
2023/11/29 00:58:46;;;;;;;51.70;27.80;;;;;;;-3.49;85.21;97676.49;226219;1272;22723;-79
2023/11/29 01:03:48;;;;;;;53.80;27.30;;;;;;;-3.54;85.07;97676.02;226189;1276;22730;-78
2023/11/29 01:08:51;;;;;;;55.60;28.10;;;;;;;-3.60;85.18;97675.55;226144;1273;22655;-78
2023/11/29 01:13:53;;;;;;;51.60;27.70;;;;;;;-3.66;85.30;97680.69;226179;1274;22578;-78
2023/11/29 01:18:57;;;;;;;52.70;26.50;;;;;;;-3.71;85.49;97676.12;226189;1269;22718;-78
2023/11/29 01:24:00;;;;;;;52.70;27.20;;;;;;;-3.74;85.14;97681.35;226317;1273;22706;-78
2023/11/29 01:29:02;;;;;;;54.90;28.10;;;;;;;-3.74;85.56;97687.36;226216;1275;22673;-78
2023/11/29 01:34:04;;;;;;;53.70;28.00;;;;;;;-3.70;85.63;97689.49;226224;1274;22608;-78
2023/11/29 01:39:06;;;;;;;52.00;26.70;;;;;;;-3.67;85.58;97695.35;226162;1275;22576;-78
2023/11/29 01:44:09;;;;;;;57.00;28.30;;;;;;;-3.63;85.69;97700.70;226258;1272;23398;-78
2023/11/29 01:49:12;;;;;;;53.20;26.90;;;;;;;-3.63;85.61;97704.33;226219;1272;22701;-79
2023/11/29 01:54:15;;;;;;;51.50;26.10;;;;;;;-3.63;85.28;97701.27;226235;1273;22574;-78
2023/11/29 01:59:18;;;;;;;48.10;25.70;;;;;;;-3.65;85.00;97703.63;226127;1273;22600;-78
2023/11/29 02:04:20;;;;;;;49.10;24.70;;;;;;;-3.70;85.48;97705.89;226204;1273;22585;-78
2023/11/29 02:09:23;;;;;;;48.40;24.70;;;;;;;-3.73;85.13;97706.73;226205;1276;23247;-78
2023/11/29 02:14:25;;;;;;;48.20;24.90;;;;;;;-3.75;85.36;97714.83;226183;1276;25554;-79
2023/11/29 02:19:28;;;;;;;47.40;24.30;;;;;;;-3.79;85.10;97716.67;226227;1276;22624;-79
2023/11/29 02:24:39;;;;;;;47.20;24.00;;;;;;;-3.82;85.09;97723.51;226297;1275;22627;-78
2023/11/29 02:29:42;;;;;;;45.40;22.70;;;;;;;-3.89;84.95;97726.24;226234;1269;22624;-77
2023/11/29 02:34:44;;;;;;;45.80;23.30;;;;;;;-3.94;85.04;97729.95;226216;1276;22591;-77
2023/11/29 02:39:46;;;;;;;42.20;21.80;;;;;;;-3.99;84.98;97733.45;226216;1276;22709;-77
2023/11/29 02:44:49;;;;;;;47.30;23.10;;;;;;;-4.02;84.84;97742.77;226298;1273;24790;-78
2023/11/29 02:49:51;;;;;;;48.00;23.10;;;;;;;-4.01;84.88;97739.77;226224;1276;22582;-78
2023/11/29 02:54:53;;;;;;;50.40;23.60;;;;;;;-4.00;84.74;97741.70;226332;1276;22585;-78
2023/11/29 02:59:55;;;;;;;49.10;24.70;;;;;;;-3.99;84.76;97748.71;226229;1276;22585;-78
2023/11/29 03:04:58;;;;;;;47.90;21.90;;;;;;;-4.02;84.68;97750.73;226319;1276;22586;-77
2023/11/29 03:10:00;;;;;;;42.60;21.30;;;;;;;-4.03;85.18;97753.89;226219;1268;22568;-77
2023/11/29 03:15:02;;;;;;;42.60;21.10;;;;;;;-4.07;84.79;97761.58;226222;1272;22567;-77
2023/11/29 03:20:07;;;;;;;39.60;19.40;;;;;;;-4.11;84.60;97758.24;226224;1273;22739;-77
2023/11/29 03:25:09;;;;;;;33.00;17.70;;;;;;;-4.14;84.76;97769.36;226444;1272;22732;-77
2023/11/29 03:30:12;;;;;;;38.60;18.40;;;;;;;-4.16;84.73;97775.42;226224;1276;22845;-78
2023/11/29 03:35:14;;;;;;;36.80;19.40;;;;;;;-4.20;84.85;97773.80;226362;1276;22588;-77
2023/11/29 03:40:17;;;;;;;34.60;17.00;;;;;;;-4.22;84.84;97777.79;226192;1272;22545;-78
2023/11/29 03:45:19;;;;;;;37.20;20.00;;;;;;;-4.23;85.14;97778.30;226282;1272;23442;-78
2023/11/29 03:50:22;;;;;;;37.00;17.90;;;;;;;-4.21;85.15;97780.06;226212;1269;22627;-78
2023/11/29 03:55:24;;;;;;;38.40;19.00;;;;;;;-4.21;85.46;97783.52;226302;1272;22677;-78
2023/11/29 04:00:26;;;;;;;38.50;18.30;;;;;;;-4.21;85.26;97777.32;226323;1253;24244;-78
2023/11/29 04:05:28;;;;;;;34.50;17.40;;;;;;;-4.18;85.39;97778.83;226318;1272;23208;-78
2023/11/29 04:10:33;;;;;;;34.60;17.30;;;;;;;-4.18;85.34;97782.78;226292;1275;24379;-78
2023/11/29 04:15:36;;;;;;;32.60;16.20;;;;;;;-4.18;85.36;97788.13;226288;1265;22714;-77
2023/11/29 04:20:38;;;;;;;34.20;17.30;;;;;;;-4.17;85.34;97795.45;226284;1254;22933;-77
2023/11/29 04:25:41;;;;;;;32.20;16.50;;;;;;;-4.16;85.27;97799.63;226198;1275;25635;-77
2023/11/29 04:30:43;;;;;;;35.70;17.40;;;;;;;-4.17;85.25;97804.68;226292;1272;22628;-78
2023/11/29 04:35:45;;;;;;;31.00;15.70;;;;;;;-4.17;85.44;97798.52;226303;1276;22685;-78
2023/11/29 04:40:48;;;;;;;35.00;16.20;;;;;;;-4.17;85.06;97803.80;226202;1275;22616;-77
2023/11/29 04:45:50;;;;;;;31.40;16.60;;;;;;;-4.16;85.40;97815.39;226263;1265;22577;-78
2023/11/29 04:50:52;;;;;;;32.90;16.30;;;;;;;-4.15;85.26;97823.27;226365;1276;22655;-77
2023/11/29 04:55:55;;;;;;;33.60;16.80;;;;;;;-4.14;85.52;97828.14;226265;1275;22585;-77
2023/11/29 05:00:57;;;;;;;30.20;14.60;;;;;;;-4.15;85.32;97830.13;226337;1276;25517;-77
2023/11/29 05:05:59;;;;;;;32.30;15.30;;;;;;;-4.18;85.35;97830.08;226307;1260;22830;-77
2023/11/29 05:11:06;;;;;;;31.60;15.10;;;;;;;-4.21;84.92;97833.20;226241;1276;22874;-77
2023/11/29 05:16:09;;;;;;;29.80;15.00;;;;;;;-4.24;85.24;97829.96;226502;1272;24226;-79
2023/11/29 05:21:11;;;;;;;35.80;17.30;;;;;;;-4.27;85.02;97835.84;226279;1273;26318;-75
2023/11/29 05:26:14;;;;;;;29.30;14.70;;;;;;;-4.25;85.39;97838.64;226275;1275;22585;-77
2023/11/29 05:31:18;;;;;;;33.20;16.50;;;;;;;-4.26;85.35;97840.81;226321;1272;22588;-78
2023/11/29 05:36:21;;;;;;;31.40;15.60;;;;;;;-4.27;85.37;97845.15;226265;1275;22723;-77
2023/11/29 05:41:23;;;;;;;33.70;16.20;;;;;;;-4.22;85.47;97839.63;226222;1275;22680;-79
2023/11/29 05:46:28;;;;;;;29.20;13.80;;;;;;;-4.19;85.47;97835.13;226306;1275;22601;-78
2023/11/29 05:51:30;;;;;;;35.50;16.00;;;;;;;-4.19;85.35;97835.92;226450;1276;22558;-77
2023/11/29 05:56:32;;;;;;;30.50;15.50;;;;;;;-4.18;85.18;97844.50;226342;1275;22662;-78
2023/11/29 06:01:36;;;;;;;36.20;16.90;;;;;;;-4.16;85.48;97852.97;226110;1275;22626;-77
2023/11/29 06:06:39;;;;;;;27.70;14.10;;;;;;;-4.15;85.44;97864.66;226237;1275;22592;-77
2023/11/29 06:11:41;;;;;;;33.40;15.80;;;;;;;-4.17;85.00;97866.39;226294;1275;22572;-77
2023/11/29 06:16:43;;;;;;;35.10;16.60;;;;;;;-4.22;85.27;97874.71;226250;1274;22768;-78
2023/11/29 06:21:46;;;;;;;36.60;17.30;;;;;;;-4.27;85.15;97884.48;226212;1272;22623;-78
2023/11/29 06:26:49;;;;;;;36.10;16.30;;;;;;;-4.28;85.11;97892.11;226168;1276;23309;-78
2023/11/29 06:31:51;;;;;;;35.80;17.30;;;;;;;-4.28;85.35;97895.08;226503;1269;22604;-78
2023/11/29 06:36:53;;;;;;;32.80;15.60;;;;;;;-4.29;85.30;97903.41;226230;1276;22598;-78
2023/11/29 06:41:55;;;;;;;32.00;15.30;;;;;;;-4.27;85.45;97908.72;226334;1269;22614;-78
2023/11/29 06:46:58;;;;;;;29.70;15.00;;;;;;;-4.24;85.64;97911.52;226209;1266;22905;-78
2023/11/29 06:52:03;;;;;;;33.40;16.40;;;;;;;-4.21;85.44;97911.57;226286;1268;22605;-79
2023/11/29 06:57:05;;;;;;;32.40;14.60;;;;;;;-4.21;85.64;97916.89;225920;1262;22589;-77
2023/11/29 07:02:07;;;;;;;31.50;15.80;;;;;;;-4.18;85.37;97924.11;225945;1256;22595;-79
2023/11/29 07:07:11;;;;;;;24.80;13.30;;;;;;;-4.09;85.51;97935.59;226027;1254;22550;-78
2023/11/29 07:12:13;;;;;;;27.00;13.30;;;;;;;-3.99;85.50;97929.33;225796;1254;22689;-78
2023/11/29 07:17:15;;;;;;;27.30;13.90;;;;;;;-3.92;85.63;97928.73;225782;1263;22601;-79
2023/11/29 07:22:18;;;;;;;31.50;15.30;;;;;;;-3.85;85.35;97938.73;225636;1264;22572;-78
2023/11/29 07:27:20;;;;;;;31.20;14.70;;;;;;;-3.76;85.63;97937.63;225724;1256;26525;-80
2023/11/29 07:32:24;;;;;;;38.40;18.00;;;;;;;-3.71;85.19;97937.41;225703;1267;22668;-81
2023/11/29 07:37:27;;;;;;;45.40;22.90;;;;;;;-3.68;85.15;97935.78;225665;1262;22557;-81
2023/11/29 07:42:33;;;;;;;41.90;20.50;;;;;;;-3.60;85.05;97938.10;225713;1273;22538;-79
2023/11/29 07:48:29;;;;;;;43.40;19.60;;;;;;;-3.54;85.14;97943.52;225459;1256;23609;-81
2023/11/29 07:53:35;;;;;;;36.70;17.10;;;;;;;-3.50;84.78;97945.44;225668;1256;23185;-82
2023/11/29 07:58:38;;;;;;;41.50;17.50;;;;;;;-3.43;84.79;97943.84;225797;1256;22556;-82
2023/11/29 08:03:40;;;;;;;46.60;19.60;;;;;;;-3.38;84.94;97951.34;225693;1272;23054;-80
2023/11/29 08:08:42;;;;;;;39.90;18.90;;;;;;;-3.38;84.79;97947.71;225856;1256;22704;-81
2023/11/29 08:13:45;;;;;;;46.90;21.90;;;;;;;-3.26;85.08;97949.19;225813;1261;22568;-79
2023/11/29 08:18:47;;;;;;;40.70;20.30;;;;;;;-3.17;84.51;97944.54;225702;1265;22576;-79
2023/11/29 08:23:49;;;;;;;42.10;18.20;;;;;;;-3.10;84.43;97939.96;225743;1267;22572;-77
2023/11/29 08:28:51;;;;;;;52.10;24.90;;;;;;;-3.01;84.31;97943.86;225702;1261;22595;-79
2023/11/29 08:33:53;;;;;;;36.70;18.00;;;;;;;-2.90;84.38;97941.41;225641;1260;22925;-79
2023/11/29 08:38:56;;;;;;;34.70;16.20;;;;;;;-2.85;84.20;97941.20;225987;1257;22562;-78
2023/11/29 08:43:58;;;;;;;33.20;15.90;;;;;;;-2.80;83.99;97950.11;225819;1275;22679;-78
2023/11/29 08:49:00;;;;;;;30.30;15.50;;;;;;;-2.75;83.76;97952.45;225856;1270;22562;-78
2023/11/29 08:54:03;;;;;;;28.50;13.50;;;;;;;-2.67;84.11;97949.04;225870;1270;23049;-79
2023/11/29 08:59:06;;;;;;;27.20;14.00;;;;;;;-2.64;83.74;97949.26;225915;1270;22624;-79
2023/11/29 09:04:08;;;;;;;33.80;17.00;;;;;;;-2.63;83.37;97959.58;225899;1261;22568;-78
2023/11/29 09:09:12;;;;;;;35.00;18.00;;;;;;;-2.64;83.45;97965.97;225869;1260;22555;-78
2023/11/29 09:14:14;;;;;;;39.10;19.10;;;;;;;-2.67;83.51;97959.86;226284;1251;22729;-79
2023/11/29 09:19:16;;;;;;;34.50;18.40;;;;;;;-2.57;83.64;97957.81;225974;1269;22544;-79
2023/11/29 09:24:18;;;;;;;36.70;18.90;;;;;;;-2.55;83.32;97958.35;225976;1257;22528;-80
2023/11/29 09:29:25;;;;;;;29.90;16.10;;;;;;;-2.58;83.14;97956.16;225904;1274;22573;-79
2023/11/29 09:34:28;;;;;;;29.60;15.80;;;;;;;-2.59;83.20;97963.04;226018;1275;22553;-81
2023/11/29 09:39:30;;;;;;;31.50;17.90;;;;;;;-2.59;83.21;97961.06;225874;1270;22541;-80
2023/11/29 09:44:36;;;;;;;33.80;17.10;;;;;;;-2.52;83.55;97955.85;225761;1267;22609;-77
2023/11/29 09:49:39;;;;;;;30.60;17.50;;;;;;;-2.39;83.75;97952.80;225988;1253;22570;-80
2023/11/29 09:54:42;;;;;;;27.40;15.80;;;;;;;-2.37;83.07;97944.25;225892;1256;22581;-82
2023/11/29 09:59:45;;;;;;;27.70;16.70;;;;;;;-2.37;83.03;97942.05;225808;1265;25394;-82
2023/11/29 10:04:47;;;;;;;26.90;16.10;;;;;;;-2.19;83.04;97950.34;226188;1256;23275;-84
2023/11/29 10:09:49;;;;;;;23.30;13.00;;;;;;;-2.06;82.86;97943.38;226095;1273;22561;-85
2023/11/29 10:14:54;;;;;;;30.60;17.90;;;;;;;-1.93;82.53;97942.63;226073;1257;26589;-83
2023/11/29 10:20:07;;;;;;;30.40;17.70;;;;;;;-1.93;82.22;97945.34;226022;1273;24248;-79
2023/11/29 10:25:17;;;;;;;25.20;15.20;;;;;;;-1.96;81.61;97943.39;225907;1258;22618;-78
2023/11/29 10:30:20;;;;;;;27.00;14.50;;;;;;;-1.91;82.13;97941.25;226087;1267;22756;-80
2023/11/29 10:35:24;;;;;;;23.60;14.00;;;;;;;-1.73;81.98;97931.91;225536;1270;22597;-80
2023/11/29 10:40:28;;;;;;;22.00;13.50;;;;;;;-1.52;81.91;97927.30;225808;1260;23081;-84
2023/11/29 10:45:35;;;;;;;25.20;15.10;;;;;;;-1.33;81.75;97926.55;225575;1255;22555;-79
2023/11/29 10:50:39;;;;;;;25.10;14.30;;;;;;;-1.21;81.56;97926.86;225962;1264;23076;-80
2023/11/29 10:55:44;;;;;;;27.70;16.00;;;;;;;-1.15;81.20;97924.92;225832;1273;22584;-80
2023/11/29 11:00:46;;;;;;;28.00;16.40;;;;;;;-1.00;81.52;97914.61;225944;1255;22562;-80
2023/11/29 11:05:48;;;;;;;26.50;15.90;;;;;;;-0.59;82.18;97911.70;225947;1270;22601;-82
2023/11/29 11:10:51;;;;;;;24.70;14.90;;;;;;;-0.39;81.25;97901.06;226019;1257;22642;-75
2023/11/29 11:15:55;;;;;;;25.40;15.10;;;;;;;-0.32;80.97;97893.87;226058;1267;24903;-72
2023/11/29 11:20:59;;;;;;;25.70;14.60;;;;;;;-0.23;81.01;97889.05;225649;1257;235702;-74
2023/11/29 11:26:09;;;;;;;28.70;16.90;;;;;;;-0.31;80.42;97883.95;226078;1256;25382;-74
2023/11/29 11:31:12;;;;;;;27.40;15.40;;;;;;;-0.50;79.85;97887.20;225878;1270;22745;-74
2023/11/29 11:36:16;;;;;;;29.30;16.60;;;;;;;-0.63;79.64;97883.08;226008;1270;22982;-76
2023/11/29 11:41:19;;;;;;;26.70;16.40;;;;;;;-0.60;80.48;97883.64;226134;1270;25446;-76
2023/11/29 11:46:21;;;;;;;31.80;17.40;;;;;;;-0.51;80.55;97884.03;226046;1260;22522;-77
2023/11/29 11:51:23;;;;;;;30.60;17.10;;;;;;;-0.44;80.47;97882.48;225846;1267;25291;-75
2023/11/29 11:56:26;;;;;;;28.90;16.10;;;;;;;-0.34;80.53;97885.96;226004;1270;22543;-77
2023/11/29 12:01:29;;;;;;;31.80;18.10;;;;;;;-0.33;79.94;97877.19;226056;1273;24250;-79
2023/11/29 12:06:33;;;;;;;31.40;17.00;;;;;;;-0.30;80.03;97873.65;225692;1270;22575;-79
2023/11/29 12:11:36;;;;;;;33.50;18.80;;;;;;;-0.28;79.76;97877.38;225571;1254;22577;-80
2023/11/29 12:16:39;;;;;;;37.50;20.40;;;;;;;-0.30;79.65;97871.35;225620;1254;23160;-80
2023/11/29 12:21:43;;;;;;;32.80;19.20;;;;;;;-0.33;79.22;97871.84;225751;1254;22562;-79
2023/11/29 12:26:46;;;;;;;33.00;18.50;;;;;;;-0.39;79.07;97871.13;225840;1272;22630;-79
2023/11/29 12:31:52;;;;;;;36.70;19.00;;;;;;;-0.39;79.25;97868.20;225763;1256;24261;-79
2023/11/29 12:36:57;;;;;;;32.20;18.90;;;;;;;-0.34;79.48;97865.82;225762;1255;22547;-78
2023/11/29 12:42:03;;;;;;;31.20;17.80;;;;;;;-0.35;79.10;97866.10;226053;1254;22543;-77
2023/11/29 12:47:06;;;;;;;29.90;16.80;;;;;;;-0.40;78.78;97858.89;225911;1254;22551;-76
2023/11/29 12:52:08;;;;;;;27.70;15.40;;;;;;;-0.42;79.02;97858.14;225782;1254;22686;-75
2023/11/29 12:57:11;;;;;;;26.20;15.60;;;;;;;-0.48;78.91;97856.40;225878;1255;22590;-76
2023/11/29 13:02:13;;;;;;;29.40;15.80;;;;;;;-0.51;78.94;97862.46;225768;1253;22541;-76
2023/11/29 13:07:15;;;;;;;25.20;14.00;;;;;;;-0.57;78.97;97859.03;225828;1267;22554;-76
2023/11/29 13:12:18;;;;;;;25.00;15.00;;;;;;;-0.65;78.53;97865.75;225914;1267;22556;-79
2023/11/29 13:17:22;;;;;;;24.70;14.00;;;;;;;-0.79;78.09;97858.77;225785;1263;22536;-78
2023/11/29 13:22:25;;;;;;;23.50;13.50;;;;;;;-0.92;78.54;97861.14;225812;1272;26166;-78
2023/11/29 13:27:28;;;;;;;24.80;13.60;;;;;;;-0.94;78.89;97865.53;225649;1266;22926;-78
2023/11/29 13:32:30;;;;;;;25.70;13.50;;;;;;;-1.06;78.59;97867.31;225879;1264;22692;-77
2023/11/29 13:37:33;;;;;;;23.90;13.40;;;;;;;-1.13;78.65;97866.04;225988;1272;22567;-75
2023/11/29 13:42:35;;;;;;;22.40;13.00;;;;;;;-1.26;78.38;97861.81;225875;1267;22537;-76
2023/11/29 13:47:39;;;;;;;23.20;12.70;;;;;;;-1.34;78.58;97868.64;225818;1256;22592;-78
2023/11/29 13:52:42;;;;;;;24.60;13.20;;;;;;;-1.43;78.85;97875.27;226093;1260;23044;-79
2023/11/29 13:57:45;;;;;;;24.30;14.00;;;;;;;-1.53;78.51;97884.58;226087;1275;24230;-79
2023/11/29 14:02:47;;;;;;;24.00;13.00;;;;;;;-1.63;78.05;97892.08;226295;1264;26965;-80
2023/11/29 14:07:51;;;;;;;28.10;14.00;;;;;;;-1.72;78.72;97898.56;226167;1267;22702;-78
2023/11/29 14:12:54;;;;;;;23.50;14.40;;;;;;;-1.81;78.38;97895.36;226182;1253;22537;-77
2023/11/29 14:17:57;;;;;;;27.60;14.30;;;;;;;-1.89;78.61;97896.52;226177;1269;22591;-78
2023/11/29 14:23:00;;;;;;;25.20;13.60;;;;;;;-1.98;78.75;97898.04;226070;1264;24784;-80
2023/11/29 14:28:02;;;;;;;21.70;11.90;;;;;;;-2.07;79.04;97896.91;226007;1264;22579;-78
2023/11/29 14:33:12;;;;;;;25.40;12.80;;;;;;;-2.18;78.85;97898.90;226062;1253;22625;-79
2023/11/29 14:38:15;;;;;;;26.10;14.30;;;;;;;-2.30;78.36;97904.77;225906;1254;22576;-75
2023/11/29 14:43:17;;;;;;;22.90;12.20;;;;;;;-2.42;78.56;97909.94;225954;1268;22579;-77
2023/11/29 14:48:20;;;;;;;19.70;11.70;;;;;;;-2.52;78.74;97913.14;225891;1254;25983;-78
2023/11/29 14:53:23;;;;;;;20.00;12.10;;;;;;;-2.60;78.37;97912.09;225884;1252;25016;-81
2023/11/29 14:58:25;;;;;;;28.20;16.10;;;;;;;-2.68;78.88;97912.89;225587;1275;22765;-79
2023/11/29 15:03:28;;;;;;;23.10;13.10;;;;;;;-2.75;79.18;97916.05;225724;1253;22763;-81
2023/11/29 15:08:31;;;;;;;24.70;13.10;;;;;;;-2.80;79.00;97914.65;225668;1275;22649;-81
2023/11/29 15:13:33;;;;;;;24.50;13.80;;;;;;;-2.90;79.42;97916.06;225698;1275;22650;-81
2023/11/29 15:18:42;;;;;;;21.80;12.60;;;;;;;-2.98;79.36;97914.89;225759;1273;22605;-79
2023/11/29 15:23:45;;;;;;;21.80;11.90;;;;;;;-3.07;79.22;97911.79;225959;1275;22572;-80
2023/11/29 15:28:48;;;;;;;26.00;14.30;;;;;;;-3.16;79.45;97910.17;225816;1275;22668;-79
2023/11/29 15:33:50;;;;;;;32.20;17.10;;;;;;;-3.26;79.47;97906.98;226320;1271;22539;-78
2023/11/29 15:38:52;;;;;;;29.50;17.00;;;;;;;-3.35;79.73;97905.97;226207;1275;22648;-78
2023/11/29 15:43:55;;;;;;;36.00;19.20;;;;;;;-3.44;79.82;97912.95;226405;1272;22573;-79
2023/11/29 15:48:57;;;;;;;32.30;17.60;;;;;;;-3.50;79.95;97913.08;226319;1272;22582;-79
2023/11/29 15:53:59;;;;;;;34.70;19.30;;;;;;;-3.56;79.93;97914.03;226434;1253;22821;-78
2023/11/29 15:59:01;;;;;;;41.20;21.70;;;;;;;-3.64;80.11;97907.43;226296;1273;22710;-78
2023/11/29 16:04:04;;;;;;;44.10;22.60;;;;;;;-3.73;80.37;97903.40;226324;1273;22711;-78
2023/11/29 16:09:07;;;;;;;43.40;22.20;;;;;;;-3.82;80.13;97901.30;226338;1269;22607;-77
2023/11/29 16:14:10;;;;;;;40.70;21.20;;;;;;;-3.90;80.52;97901.61;226481;1272;25645;-77
2023/11/29 16:19:12;;;;;;;47.90;22.40;;;;;;;-3.95;80.52;97909.20;226495;1273;22591;-78
2023/11/29 16:24:14;;;;;;;43.00;22.10;;;;;;;-4.00;80.63;97913.92;226310;1270;22664;-78
2023/11/29 16:29:16;;;;;;;46.80;24.10;;;;;;;-4.06;81.06;97914.87;226398;1272;24413;-78
2023/11/29 16:34:19;;;;;;;38.30;19.90;;;;;;;-4.12;80.82;97921.35;226393;1273;25518;-78
2023/11/29 16:39:21;;;;;;;40.30;21.00;;;;;;;-4.16;81.22;97916.31;226331;1273;22668;-78
2023/11/29 16:44:23;;;;;;;40.50;19.90;;;;;;;-4.18;81.12;97912.41;226292;1270;22683;-78
2023/11/29 16:49:25;;;;;;;44.20;21.80;;;;;;;-4.23;81.07;97907.14;226279;1275;26329;-77
2023/11/29 16:54:28;;;;;;;48.90;25.50;;;;;;;-4.30;81.50;97900.35;226446;1275;22740;-78
2023/11/29 16:59:30;;;;;;;52.50;25.10;;;;;;;-4.35;81.64;97896.64;226506;1275;22748;-77
2023/11/29 17:04:32;;;;;;;44.60;21.80;;;;;;;-4.39;81.66;97897.27;226335;1275;23160;-77
2023/11/29 17:09:34;;;;;;;48.20;23.80;;;;;;;-4.43;81.68;97901.19;226399;1273;22601;-76
2023/11/29 17:14:37;;;;;;;50.60;25.50;;;;;;;-4.46;81.78;97909.20;226399;1275;22657;-77
2023/11/29 17:19:39;;;;;;;52.80;25.40;;;;;;;-4.48;81.84;97907.45;226307;1273;26191;-79
2023/11/29 17:24:42;;;;;;;52.90;26.60;;;;;;;-4.52;81.83;97906.41;226500;1275;22594;-77
2023/11/29 17:29:44;;;;;;;52.70;26.30;;;;;;;-4.56;82.12;97909.80;226345;1273;23284;-77
2023/11/29 17:34:47;;;;;;;57.60;27.90;;;;;;;-4.55;82.31;97909.85;226360;1269;22628;-78
2023/11/29 17:39:49;;;;;;;48.20;24.80;;;;;;;-4.52;82.50;97906.55;226328;1270;26861;-76
2023/11/29 17:44:51;;;;;;;38.00;18.60;;;;;;;-4.49;82.43;97907.77;226317;1273;22589;-76
2023/11/29 17:49:53;;;;;;;41.70;22.10;;;;;;;-4.44;82.53;97909.04;226493;1275;22600;-76
2023/11/29 17:54:57;;;;;;;44.50;21.90;;;;;;;-4.40;82.87;97911.13;226470;1269;24221;-76
2023/11/29 18:00:00;;;;;;;35.90;18.50;;;;;;;-4.35;83.12;97909.36;226444;1272;22621;-76
2023/11/29 18:05:02;;;;;;;34.40;17.90;;;;;;;-4.30;82.65;97899.34;226458;1269;22662;-76
2023/11/29 18:10:04;;;;;;;41.90;20.70;;;;;;;-4.28;82.70;97892.70;226331;1274;24232;-79
2023/11/29 18:15:07;;;;;;;44.30;20.90;;;;;;;-4.30;82.54;97885.83;226457;1272;22723;-78
2023/11/29 18:20:10;;;;;;;42.60;19.10;;;;;;;-4.29;82.86;97893.63;226279;1275;22597;-76
2023/11/29 18:25:13;;;;;;;41.50;18.40;;;;;;;-4.27;83.02;97891.07;226461;1274;25724;-77
2023/11/29 18:30:15;;;;;;;40.60;20.00;;;;;;;-4.28;82.71;97884.41;226210;1275;25621;-76
2023/11/29 18:35:18;;;;;;;47.50;23.00;;;;;;;-4.29;82.68;97886.23;226300;1275;23223;-76
2023/11/29 18:40:20;;;;;;;40.30;19.40;;;;;;;-4.30;82.94;97886.29;226444;1253;24238;-77
2023/11/29 18:45:22;;;;;;;36.70;18.10;;;;;;;-4.28;82.77;97889.23;226402;1269;26579;-77
2023/11/29 18:50:24;;;;;;;36.60;17.70;;;;;;;-4.28;83.09;97887.98;226492;1272;22619;-77
2023/11/29 18:55:29;;;;;;;30.60;15.20;;;;;;;-4.23;83.03;97893.70;226427;1273;22573;-76
2023/11/29 19:00:31;;;;;;;30.30;16.00;;;;;;;-4.16;83.25;97889.91;226455;1272;22676;-75
2023/11/29 19:05:33;;;;;;;32.30;16.60;;;;;;;-4.11;83.53;97891.74;226375;1266;22641;-77
2023/11/29 19:10:36;;;;;;;30.30;17.20;;;;;;;-4.08;83.53;97892.98;226488;1272;22611;-77
2023/11/29 19:15:38;;;;;;;32.90;16.80;;;;;;;-4.04;83.17;97888.26;226353;1275;22626;-76
2023/11/29 19:20:40;;;;;;;30.30;17.40;;;;;;;-4.04;83.09;97884.45;226370;1275;22698;-75
2023/11/29 19:25:42;;;;;;;29.30;16.30;;;;;;;-4.05;83.14;97887.65;226369;1275;22599;-76
2023/11/29 19:30:45;;;;;;;34.00;17.40;;;;;;;-4.07;83.32;97887.95;226502;1272;23139;-77
2023/11/29 19:35:48;;;;;;;29.50;15.90;;;;;;;-4.10;83.07;97882.02;226492;1272;22628;-77
2023/11/29 19:40:50;;;;;;;31.10;16.90;;;;;;;-4.13;83.26;97881.01;226435;1269;22577;-77
2023/11/29 19:45:52;;;;;;;32.70;17.40;;;;;;;-4.11;83.45;97886.55;226610;1272;24388;-77
2023/11/29 19:50:56;;;;;;;31.40;16.60;;;;;;;-4.09;83.38;97888.45;226529;1272;25545;-76
2023/11/29 19:55:58;;;;;;;31.50;16.20;;;;;;;-4.08;83.55;97883.08;226499;1275;23336;-76
2023/11/29 20:01:01;;;;;;;35.30;17.80;;;;;;;-4.07;83.42;97886.38;226438;1272;23127;-76
2023/11/29 20:06:03;;;;;;;35.70;19.20;;;;;;;-4.07;83.38;97891.05;226240;1274;22616;-77
2023/11/29 20:11:07;;;;;;;37.00;19.00;;;;;;;-4.12;83.30;97891.27;226156;1275;22586;-76
2023/11/29 20:16:10;;;;;;;43.80;20.50;;;;;;;-4.18;83.27;97892.10;226422;1260;22617;-76
2023/11/29 20:21:12;;;;;;;40.60;21.00;;;;;;;-4.23;83.27;97888.00;226475;1272;23346;-76
2023/11/29 20:26:14;;;;;;;42.30;21.70;;;;;;;-4.25;83.25;97888.16;226269;1275;22941;-76
2023/11/29 20:31:23;;;;;;;37.80;19.60;;;;;;;-4.25;83.46;97889.85;226346;1274;22777;-76
2023/11/29 20:36:25;;;;;;;39.70;20.30;;;;;;;-4.22;83.65;97891.95;226287;1253;23052;-76
2023/11/29 20:41:29;;;;;;;37.20;18.80;;;;;;;-4.20;83.61;97877.95;226358;1275;22678;-76
2023/11/29 20:46:32;;;;;;;28.50;15.20;;;;;;;-4.13;83.90;97873.46;226327;1275;22557;-76
2023/11/29 20:51:34;;;;;;;30.50;16.30;;;;;;;-3.94;84.34;97869.27;226426;1275;22598;-76
2023/11/29 20:56:36;;;;;;;28.40;15.90;;;;;;;-3.79;83.90;97872.84;226372;1275;22578;-76
2023/11/29 21:01:39;;;;;;;27.70;15.80;;;;;;;-3.69;83.80;97871.05;226304;1275;24373;-77
2023/11/29 21:06:41;;;;;;;25.90;15.20;;;;;;;-3.62;83.73;97871.83;226455;1272;24251;-77
2023/11/29 21:11:43;;;;;;;23.40;13.30;;;;;;;-3.51;83.56;97868.61;226470;1272;22594;-76
2023/11/29 21:16:45;;;;;;;23.80;13.30;;;;;;;-3.41;83.81;97867.80;226196;1272;22752;-76
2023/11/29 21:21:47;;;;;;;26.30;14.90;;;;;;;-3.35;83.50;97864.48;226325;1275;22594;-76
2023/11/29 21:26:49;;;;;;;24.00;12.80;;;;;;;-3.28;83.58;97867.38;226310;1275;24253;-76
2023/11/29 21:31:53;;;;;;;24.10;11.80;;;;;;;-3.25;83.24;97867.16;226339;1275;22751;-76
2023/11/29 21:36:55;;;;;;;25.50;14.20;;;;;;;-3.26;83.14;97865.45;226407;1273;22577;-76
2023/11/29 21:41:57;;;;;;;25.80;13.90;;;;;;;-3.28;82.79;97857.04;226352;1275;22669;-75
2023/11/29 21:46:59;;;;;;;30.80;14.40;;;;;;;-3.27;82.70;97853.35;226389;1272;22676;-76
2023/11/29 21:52:02;;;;;;;29.50;15.10;;;;;;;-3.26;82.72;97851.89;226237;1273;22607;-75
2023/11/29 21:57:04;;;;;;;27.50;14.50;;;;;;;-3.23;82.67;97846.98;226349;1273;22595;-76
2023/11/29 22:02:06;;;;;;;30.00;15.50;;;;;;;-3.19;82.77;97847.73;226341;1272;24288;-76
2023/11/29 22:07:13;;;;;;;29.90;14.40;;;;;;;-3.16;82.82;97841.11;226304;1275;24889;-76
2023/11/29 22:12:15;;;;;;;27.40;14.10;;;;;;;-3.12;82.40;97843.40;226351;1270;23088;-76
2023/11/29 22:17:17;;;;;;;25.30;13.50;;;;;;;-3.06;82.96;97845.42;226227;1272;22573;-76
2023/11/29 22:22:19;;;;;;;23.90;12.50;;;;;;;-2.97;83.02;97843.85;226362;1273;25428;-76
2023/11/29 22:27:21;;;;;;;25.30;13.30;;;;;;;-2.87;82.55;97847.29;226345;1275;22572;-76
2023/11/29 22:32:24;;;;;;;27.10;12.70;;;;;;;-2.77;82.50;97847.55;226408;1272;22612;-76
2023/11/29 22:37:27;;;;;;;24.70;12.10;;;;;;;-2.70;82.71;97848.30;226431;1269;22702;-76
2023/11/29 22:42:29;;;;;;;23.50;12.40;;;;;;;-2.60;82.68;97842.83;226371;1273;24302;-77
2023/11/29 22:47:31;;;;;;;20.90;11.60;;;;;;;-2.52;82.30;97847.28;226386;1272;22727;-77
2023/11/29 22:52:33;;;;;;;21.80;12.50;;;;;;;-2.45;82.49;97854.79;226402;1276;22672;-77
2023/11/29 22:57:35;;;;;;;24.40;12.30;;;;;;;-2.39;82.55;97850.98;226459;1275;22562;-77